Terminal Aerodrome Forecast
Issued by NWS

Home | Current Version | Previous Version | Text Only | Print | Product List | Glossary On
Versions: 1 2 3 4 5 6 7 8 9 10 11 12 13 14 15 16 17 18 19
000
FTUS43 KBIS 111401 AAC
TAFDIK
TAF AMD
KDIK 111401Z 1114/1212 32017G30KT P6SM VCSH OVC015
     FM111700 31018G25KT P6SM OVC020
     FM120100 31013KT P6SM BKN020
     FM120400 28008KT P6SM SCT120=

USA.gov is the U.S. government's official web portal to all federal, state and local government web resources and services.